New Enterprise, Pennsylvania
Current Conditions -  °F | °C
As of 3:53 PM on Wednesday 17 Dec 2014 (Local Time) from KAOO Reporting Station
Overcast Overcast  
Wind Chill: 24°   Ceiling: 2900
Heat Index: 34°   Visibility: 10mi
Dew Point: 26°   Wind: 15mph
Humidity: 73%   Direction: 290°WNW
Pressure: 29.99"   Gusts: NA
Location:  40.17°N, 78.41°W
Report Text: KAOO 172053Z AUTO 29013KT 10SM OVC029 01/M03 A2999 RMK AO2 PK WND 27026/2021 SLP166 60000 T00111033 53003
Loading
Personal Weather Stations






























Interactive Weather Map New forecast layout! Learn more

10-Day Weather Forecast

Advertisements
Track Severe Weather on mobile